createdAt,value
2022-09-05T00:00:06.275Z,98992.00
2022-09-05T00:03:08.741Z,98985.75
2022-09-05T00:06:04.852Z,98984.16
2022-09-05T00:08:52.813Z,98976.16
2022-09-05T00:11:42.698Z,98977.00
2022-09-05T00:15:16.731Z,98977.28
2022-09-05T00:18:28.418Z,98969.16
2022-09-05T00:24:18.868Z,98970.22
2022-09-05T00:24:28.080Z,98965.00
2022-09-05T00:31:06.830Z,98980.56
2022-09-05T00:33:18.023Z,98985.72
2022-09-05T00:36:03.145Z,98980.72
2022-09-05T00:38:36.476Z,98983.50
2022-09-05T00:41:12.515Z,98984.97
2022-09-05T00:43:44.855Z,98986.31
2022-09-05T00:46:19.109Z,98980.22
2022-09-05T00:48:54.636Z,98978.81
2022-09-05T00:51:35.378Z,98977.06
2022-09-05T00:54:40.348Z,98976.22
2022-09-05T00:57:39.857Z,98981.13
2022-09-05T01:00:21.304Z,98978.94
2022-09-05T01:03:10.245Z,98974.63
2022-09-05T01:05:55.924Z,98969.47
2022-09-05T01:08:56.026Z,98981.63
2022-09-05T01:11:50.019Z,98974.00
2022-09-05T01:14:40.740Z,98972.50
2022-09-05T01:17:26.525Z,98976.44
2022-09-05T01:20:19.371Z,98967.59
2022-09-05T01:23:11.001Z,98969.75
2022-09-05T01:26:01.061Z,98965.72
2022-09-05T01:29:17.126Z,98968.16
2022-09-05T01:31:38.941Z,98966.22
2022-09-05T01:34:29.643Z,98968.72
2022-09-05T01:37:24.811Z,98977.53
2022-09-05T01:40:16.442Z,98982.53
2022-09-05T01:43:17.936Z,98977.16
2022-09-05T01:45:53.308Z,98976.34
2022-09-05T01:48:34.832Z,98981.34
2022-09-05T01:51:28.909Z,98987.53
2022-09-05T01:54:21.191Z,98979.91
2022-09-05T01:57:08.185Z,98986.19
2022-09-05T01:59:49.186Z,98987.63
2022-09-05T02:02:35.575Z,98990.03
2022-09-05T02:05:48.621Z,98992.50
2022-09-05T02:08:57.119Z,98994.78
2022-09-05T02:11:45.286Z,98992.44
2022-09-05T02:14:34.212Z,98996.47
2022-09-05T02:17:49.492Z,98995.25
2022-09-05T02:20:23.838Z,98996.00
2022-09-05T02:23:27.400Z,98999.00
2022-09-05T02:26:04.243Z,98996.66
2022-09-05T02:28:45.538Z,98991.94
2022-09-05T02:31:22.440Z,98985.44
2022-09-05T02:34:02.353Z,98985.06
2022-09-05T02:36:41.354Z,98985.50
2022-09-05T02:45:10.354Z,98979.13
2022-09-05T02:45:19.649Z,98972.63
2022-09-05T02:45:26.978Z,98978.31
2022-09-05T02:48:15.537Z,98980.72
2022-09-05T02:57:26.302Z,98979.19
2022-09-05T02:57:36.373Z,98977.66
2022-09-05T02:57:40.977Z,98978.53
2022-09-05T03:00:12.085Z,98980.66
2022-09-05T03:03:05.965Z,98977.03
2022-09-05T03:05:40.410Z,98974.63
2022-09-05T03:08:31.468Z,98976.25
2022-09-05T03:11:53.641Z,98968.97
2022-09-05T03:15:22.218Z,98973.84
2022-09-05T03:18:29.284Z,98969.06
2022-09-05T03:21:44.729Z,98964.06
2022-09-05T03:25:00.453Z,98964.13
2022-09-05T03:28:21.258Z,98967.63
2022-09-05T03:31:22.078Z,98965.31
2022-09-05T03:34:27.413Z,98965.75
2022-09-05T03:37:34.739Z,98966.53
2022-09-05T03:40:36.713Z,98968.13
2022-09-05T03:43:52.148Z,98967.69
2022-09-05T03:46:49.930Z,98976.81
2022-09-05T03:52:23.386Z,98979.78
2022-09-05T03:57:06.089Z,98978.34
2022-09-05T03:57:25.710Z,98973.56
2022-09-05T03:59:47.550Z,98967.94
2022-09-05T04:05:37.998Z,98965.47
2022-09-05T04:08:08.181Z,98970.31
2022-09-05T04:08:42.018Z,98968.31
2022-09-05T04:11:12.712Z,98968.34
2022-09-05T04:13:50.091Z,98974.28
2022-09-05T04:16:23.646Z,98969.47
2022-09-05T04:18:57.831Z,98967.16
2022-09-05T04:21:32.776Z,98964.31
2022-09-05T04:24:09.177Z,98962.28
2022-09-05T04:27:13.825Z,98966.41
2022-09-05T04:29:59.310Z,98964.81
2022-09-05T04:32:46.774Z,98959.91
2022-09-05T04:35:38.839Z,98960.69
2022-09-05T04:38:14.845Z,98963.91
2022-09-05T04:40:51.744Z,98958.22
2022-09-05T04:43:32.112Z,98962.25
2022-09-05T04:46:18.845Z,98967.09
2022-09-05T04:49:02.048Z,98969.47
2022-09-05T04:52:03.901Z,98973.56
2022-09-05T04:54:42.438Z,98978.81
2022-09-05T04:57:22.921Z,98980.00
2022-09-05T05:04:00.967Z,98982.81
2022-09-05T05:06:08.227Z,98999.16
2022-09-05T05:06:10.848Z,98994.44
2022-09-05T05:08:57.014Z,98990.16
2022-09-05T05:16:18.628Z,98999.69
2022-09-05T05:18:10.906Z,99007.69
2022-09-05T05:18:11.816Z,99016.44
2022-09-05T05:20:42.072Z,99023.63
2022-09-05T05:23:16.370Z,99026.06
2022-09-05T05:25:53.934Z,99025.13
2022-09-05T05:28:29.037Z,99023.50
2022-09-05T05:31:09.667Z,99024.91
2022-09-05T05:33:42.131Z,99026.91
2022-09-05T05:36:20.266Z,99023.16
2022-09-05T05:38:57.958Z,99022.47
2022-09-05T05:41:37.184Z,99028.34
2022-09-05T05:44:17.277Z,99026.56
2022-09-05T05:46:55.187Z,99045.91
2022-09-05T05:49:40.635Z,99042.41
2022-09-05T05:52:47.284Z,99037.75
2022-09-05T05:55:51.936Z,99040.47
2022-09-05T05:58:53.522Z,99036.34
2022-09-05T06:02:04.300Z,99037.69
2022-09-05T06:05:35.964Z,99037.44
2022-09-05T06:11:04.616Z,99034.13
2022-09-05T06:15:01.624Z,99039.66
2022-09-05T06:16:06.278Z,99036.56
2022-09-05T06:19:39.147Z,99040.59
2022-09-05T06:23:38.903Z,99049.47
2022-09-05T06:26:44.765Z,99038.78
2022-09-05T06:29:34.518Z,99041.03
2022-09-05T06:32:56.921Z,99043.03
2022-09-05T06:35:42.227Z,99041.06
2022-09-05T06:38:42.755Z,99041.09
2022-09-05T06:41:29.663Z,99041.31
2022-09-05T06:44:53.000Z,99038.34
2022-09-05T06:47:34.008Z,99041.69
2022-09-05T06:50:26.979Z,99038.34
2022-09-05T06:53:39.598Z,99041.69
2022-09-05T06:56:28.167Z,99038.91
2022-09-05T07:00:22.400Z,99045.97
2022-09-05T07:03:24.549Z,99048.13
2022-09-05T07:06:00.229Z,99041.69
2022-09-05T07:08:48.242Z,99043.25
2022-09-05T07:11:22.160Z,99041.16
2022-09-05T07:14:03.872Z,99043.84
2022-09-05T07:16:49.928Z,99041.06
2022-09-05T07:19:27.162Z,99044.84
2022-09-05T07:22:29.432Z,99049.19
2022-09-05T07:25:00.477Z,99042.81
2022-09-05T07:27:42.037Z,99051.25
2022-09-05T07:30:28.502Z,99053.56
2022-09-05T07:33:00.049Z,99047.97
2022-09-05T07:35:41.525Z,99048.03
2022-09-05T07:38:18.671Z,99050.09
2022-09-05T07:41:01.936Z,99052.09
2022-09-05T07:43:39.589Z,99057.16
2022-09-05T07:46:14.662Z,99069.81
2022-09-05T07:48:47.549Z,99079.03
2022-09-05T07:56:46.340Z,99072.72
2022-09-05T07:57:03.720Z,99065.63
2022-09-05T07:57:30.218Z,99069.19
2022-09-05T08:00:26.682Z,99063.59
2022-09-05T08:03:02.195Z,99068.09
2022-09-05T08:05:45.032Z,99062.94
2022-09-05T08:08:18.585Z,99071.50
2022-09-05T08:11:22.320Z,99071.41
2022-09-05T08:14:32.719Z,99065.28
2022-09-05T08:16:45.985Z,99067.34
2022-09-05T08:19:50.132Z,99077.41
2022-09-05T08:22:25.615Z,99072.19
2022-09-05T08:25:14.391Z,99086.31
2022-09-05T08:28:02.921Z,99082.19
2022-09-05T08:30:41.454Z,99075.88
2022-09-05T08:33:19.092Z,99065.69
2022-09-05T08:35:59.363Z,99065.09
2022-09-05T08:38:35.937Z,99064.75
2022-09-05T08:41:19.007Z,99070.47
2022-09-05T08:46:36.135Z,99056.94
2022-09-05T08:47:04.239Z,99062.81
2022-09-05T08:49:57.957Z,99057.19
2022-09-05T08:52:39.024Z,99057.66
2022-09-05T08:55:20.077Z,99060.19
2022-09-05T08:58:06.466Z,99048.97
2022-09-05T09:00:50.953Z,99054.41
2022-09-05T09:03:35.672Z,99049.31
2022-09-05T09:06:22.283Z,99041.72
2022-09-05T09:09:13.215Z,99051.22
2022-09-05T09:11:49.752Z,99053.13
2022-09-05T09:14:36.900Z,99050.91
2022-09-05T09:17:22.916Z,99050.69
2022-09-05T09:20:17.440Z,99033.69
2022-09-05T09:22:59.304Z,99032.84
2022-09-05T09:25:34.187Z,99024.97
2022-09-05T09:28:52.013Z,99030.63
2022-09-05T09:31:50.270Z,99026.88
2022-09-05T09:34:50.581Z,99037.28
2022-09-05T09:38:13.703Z,99035.72
2022-09-05T09:41:33.981Z,99031.00
2022-09-05T09:45:22.774Z,99033.59
2022-09-05T09:48:46.498Z,99026.78
2022-09-05T09:51:39.285Z,99035.25
2022-09-05T09:54:40.316Z,99032.28
2022-09-05T09:57:47.067Z,99030.91
2022-09-05T10:00:21.452Z,99026.91
2022-09-05T10:07:47.922Z,99030.75
2022-09-05T10:10:46.163Z,99018.97
2022-09-05T10:10:58.216Z,99029.00
2022-09-05T10:13:36.090Z,99031.44
2022-09-05T10:16:45.594Z,99028.75
2022-09-05T10:20:13.316Z,99023.63
2022-09-05T10:23:21.472Z,99026.53
2022-09-05T10:26:43.421Z,99027.59
2022-09-05T10:29:46.998Z,99016.97
2022-09-05T10:35:07.489Z,99022.31
2022-09-05T10:35:23.579Z,99019.56
2022-09-05T10:38:10.150Z,99001.88
2022-09-05T10:41:09.734Z,99011.88
2022-09-05T10:43:42.944Z,99008.78
2022-09-05T10:49:29.997Z,98998.09
2022-09-05T10:52:13.141Z,98996.06
2022-09-05T10:55:18.771Z,98989.75
2022-09-05T10:58:01.043Z,98994.72
2022-09-05T11:02:22.647Z,98983.16
2022-09-05T11:03:54.450Z,98971.81
2022-09-05T11:06:50.945Z,98978.38
2022-09-05T11:09:40.917Z,98970.50
2022-09-05T11:12:28.591Z,98972.09
2022-09-05T11:15:02.712Z,98966.19
2022-09-05T11:17:43.351Z,98964.69
2022-09-05T11:20:45.350Z,98964.78
2022-09-05T11:23:22.439Z,98973.41
2022-09-05T11:26:02.155Z,98974.69
2022-09-05T11:28:57.405Z,98977.13
2022-09-05T11:32:22.450Z,98970.81
2022-09-05T11:39:48.632Z,98967.13
2022-09-05T11:40:08.556Z,98970.53
2022-09-05T11:42:33.274Z,98965.53
2022-09-05T11:45:30.957Z,98975.50
2022-09-05T11:48:46.571Z,98965.22
2022-09-05T11:52:04.212Z,98963.31
2022-09-05T11:55:44.226Z,98964.22
2022-09-05T11:59:06.885Z,98957.66
2022-09-05T12:01:51.802Z,98955.28
2022-09-05T12:05:47.687Z,98956.09
2022-09-05T12:08:00.392Z,98954.22
2022-09-05T12:10:48.752Z,98947.75
2022-09-05T12:13:42.551Z,98953.03
2022-09-05T12:16:33.524Z,98942.53
2022-09-05T12:19:22.766Z,98944.91
2022-09-05T12:22:18.592Z,98932.94
2022-09-05T12:26:32.155Z,98935.63
2022-09-05T12:29:27.476Z,98927.25
2022-09-05T12:32:30.865Z,98935.78
2022-09-05T12:36:06.729Z,98932.56
2022-09-05T12:40:15.854Z,98930.84
2022-09-05T12:41:38.266Z,98935.78
2022-09-05T12:44:00.679Z,98934.28
2022-09-05T12:45:59.858Z,98918.69
2022-09-05T12:48:39.465Z,98918.03
2022-09-05T12:51:11.199Z,98926.75
2022-09-05T12:53:51.090Z,98915.41
2022-09-05T12:57:27.702Z,98912.28
2022-09-05T13:03:05.044Z,98910.47
2022-09-05T13:03:08.222Z,98913.44
2022-09-05T13:05:18.483Z,98905.84
2022-09-05T13:07:57.135Z,98906.91
2022-09-05T13:12:07.409Z,98900.59
2022-09-05T13:14:57.072Z,98903.09
2022-09-05T13:16:26.182Z,98900.03
2022-09-05T13:19:07.644Z,98894.84
2022-09-05T13:21:52.807Z,98895.50
2022-09-05T13:24:30.754Z,98890.25
2022-09-05T13:27:08.721Z,98885.09
2022-09-05T13:34:11.152Z,98871.97
2022-09-05T13:37:55.595Z,98888.53
2022-09-05T13:38:14.910Z,98883.06
2022-09-05T13:39:03.513Z,98883.16
2022-09-05T13:41:43.165Z,98879.69
2022-09-05T13:44:25.558Z,98875.34
2022-09-05T13:47:02.083Z,98880.06
2022-09-05T13:49:44.999Z,98869.31
2022-09-05T13:52:29.105Z,98871.03
2022-09-05T13:55:18.693Z,98864.03
2022-09-05T13:57:54.037Z,98866.31
2022-09-05T14:01:18.985Z,98862.09
2022-09-05T14:05:08.276Z,98864.22
2022-09-05T14:08:21.179Z,98856.78
2022-09-05T14:11:38.161Z,98848.81
2022-09-05T14:17:51.581Z,98855.56
2022-09-05T14:20:43.161Z,98841.94
2022-09-05T14:23:15.878Z,98840.16
2022-09-05T14:25:50.369Z,98858.38
2022-09-05T14:28:29.085Z,98847.94
2022-09-05T14:33:16.756Z,98836.91
2022-09-05T14:37:40.491Z,98830.59
2022-09-05T14:37:41.132Z,98835.09
2022-09-05T14:41:28.338Z,98826.91
2022-09-05T14:44:42.409Z,98830.38
2022-09-05T14:47:47.470Z,98830.00
2022-09-05T14:51:05.694Z,98822.56
2022-09-05T14:57:23.513Z,98834.50
2022-09-05T15:02:48.795Z,98829.09
2022-09-05T15:02:53.849Z,98815.50
2022-09-05T15:05:40.684Z,98815.09
2022-09-05T15:08:14.882Z,98806.31
2022-09-05T15:12:24.504Z,98812.16
2022-09-05T15:14:04.012Z,98807.91
2022-09-05T15:16:38.637Z,98798.94
2022-09-05T15:19:11.230Z,98802.47
2022-09-05T15:21:41.575Z,98812.25
2022-09-05T15:24:21.324Z,98807.22
2022-09-05T15:26:54.012Z,98798.44
2022-09-05T15:29:28.516Z,98794.69
2022-09-05T15:32:16.561Z,98792.16
2022-09-05T15:34:45.821Z,98780.97
2022-09-05T15:37:30.362Z,98789.63
2022-09-05T15:40:07.767Z,98792.13
2022-09-05T15:42:55.667Z,98798.16
2022-09-05T15:45:29.786Z,98802.38
2022-09-05T15:48:08.817Z,98799.81
2022-09-05T15:50:45.516Z,98807.50
2022-09-05T15:53:26.694Z,98798.19
2022-09-05T15:56:01.065Z,98796.22
2022-09-05T15:58:52.478Z,98796.53
2022-09-05T16:01:58.261Z,98789.75
2022-09-05T16:10:28.505Z,98791.09
2022-09-05T16:10:35.690Z,98786.41
2022-09-05T16:10:57.869Z,98769.75
2022-09-05T16:13:14.249Z,98769.19
2022-09-05T16:23:15.376Z,98773.25
2022-09-05T16:23:26.194Z,98772.03
2022-09-05T16:23:37.548Z,98774.38
2022-09-05T16:24:58.523Z,98766.78
2022-09-05T16:27:46.557Z,98768.88
2022-09-05T16:30:24.212Z,98758.59
2022-09-05T16:33:03.758Z,98750.72
2022-09-05T16:35:39.883Z,98759.97
2022-09-05T16:38:33.171Z,98753.72
2022-09-05T16:41:19.023Z,98747.19
2022-09-05T16:43:56.783Z,98748.38
2022-09-05T16:46:35.496Z,98741.91
2022-09-05T16:49:12.443Z,98733.00
2022-09-05T16:51:50.297Z,98741.84
2022-09-05T16:54:27.420Z,98740.47
2022-09-05T16:57:01.374Z,98743.91
2022-09-05T16:59:33.499Z,98738.34
2022-09-05T17:02:09.658Z,98737.69
2022-09-05T17:05:03.081Z,98743.22
2022-09-05T17:07:54.019Z,98748.38
2022-09-05T17:10:28.343Z,98745.56
2022-09-05T17:12:57.821Z,98744.06
2022-09-05T17:15:32.730Z,98748.56
2022-09-05T17:18:22.182Z,98733.81
2022-09-05T17:20:58.893Z,98742.41
2022-09-05T17:28:56.034Z,98743.56
2022-09-05T17:29:26.025Z,98740.69
2022-09-05T17:31:26.618Z,98736.44
2022-09-05T17:32:47.478Z,98735.94
2022-09-05T17:35:42.442Z,98737.84
2022-09-05T17:38:50.655Z,98745.50
2022-09-05T17:42:00.010Z,98745.53
2022-09-05T17:44:33.614Z,98753.53
2022-09-05T17:47:15.512Z,98745.25
2022-09-05T17:49:46.712Z,98745.94
2022-09-05T17:52:23.616Z,98745.94
2022-09-05T17:54:57.956Z,98747.69
2022-09-05T17:57:39.361Z,98750.28
2022-09-05T18:01:00.351Z,98748.53
2022-09-05T18:04:16.192Z,98753.66
2022-09-05T18:06:59.869Z,98750.91
2022-09-05T18:10:14.838Z,98752.34
2022-09-05T18:13:12.599Z,98751.06
2022-09-05T18:16:12.615Z,98747.59
2022-09-05T18:19:32.721Z,98756.13
2022-09-05T18:21:49.959Z,98750.41
2022-09-05T18:24:33.448Z,98744.69
2022-09-05T18:27:36.451Z,98748.81
2022-09-05T18:33:55.758Z,98754.91
2022-09-05T18:36:36.591Z,98752.59
2022-09-05T18:39:43.375Z,98751.16
2022-09-05T18:42:34.434Z,98756.41
2022-09-05T18:45:12.978Z,98766.06
2022-09-05T18:47:59.192Z,98778.84
2022-09-05T18:50:32.919Z,98774.78
2022-09-05T18:53:10.054Z,98781.84
2022-09-05T18:56:13.986Z,98782.84
2022-09-05T18:58:58.078Z,98776.91
2022-09-05T19:01:50.307Z,98773.13
2022-09-05T19:04:40.300Z,98776.66
2022-09-05T19:07:29.569Z,98787.06
2022-09-05T19:10:13.193Z,98786.72
2022-09-05T19:13:02.009Z,98796.28
2022-09-05T19:15:37.265Z,98784.09
2022-09-05T19:18:26.301Z,98775.72
2022-09-05T19:21:16.804Z,98783.38
2022-09-05T19:23:53.770Z,98780.59
2022-09-05T19:26:25.001Z,98781.00
2022-09-05T19:36:46.846Z,98776.09
2022-09-05T19:36:56.454Z,98781.34
2022-09-05T19:37:07.574Z,98782.00
2022-09-05T19:37:42.807Z,98777.41
2022-09-05T19:47:26.278Z,98775.28
2022-09-05T19:47:44.061Z,98774.47
2022-09-05T19:47:51.474Z,98777.31
2022-09-05T19:49:08.813Z,98775.41
2022-09-05T19:51:41.163Z,98768.94
2022-09-05T19:54:26.602Z,98766.94
2022-09-05T19:57:01.088Z,98772.22
2022-09-05T19:59:38.364Z,98768.09
2022-09-05T20:02:11.747Z,98768.72
2022-09-05T20:04:53.143Z,98766.50
2022-09-05T20:07:25.040Z,98759.03
2022-09-05T20:09:57.204Z,98757.78
2022-09-05T20:12:31.928Z,98750.19
2022-09-05T20:15:22.927Z,98747.84
2022-09-05T20:17:54.821Z,98758.66
2022-09-05T20:20:27.996Z,98753.75
2022-09-05T20:23:00.565Z,98757.41
2022-09-05T20:25:36.784Z,98753.19
2022-09-05T20:28:10.350Z,98761.84
2022-09-05T20:30:44.476Z,98757.53
2022-09-05T20:33:23.172Z,98748.19
2022-09-05T20:43:07.949Z,98748.31
2022-09-05T20:43:16.679Z,98761.41
2022-09-05T20:43:18.011Z,98746.25
2022-09-05T20:44:41.342Z,98763.44
2022-09-05T20:54:07.910Z,98758.34
2022-09-05T20:54:17.177Z,98759.16
2022-09-05T20:54:27.791Z,98760.06
2022-09-05T20:56:04.292Z,98751.06
2022-09-05T20:58:36.248Z,98750.47
2022-09-05T21:01:21.291Z,98750.16
2022-09-05T21:03:58.029Z,98750.97
2022-09-05T21:06:33.650Z,98752.97
2022-09-05T21:09:24.386Z,98760.94
2022-09-05T21:11:58.700Z,98759.09
2022-09-05T21:14:30.375Z,98756.63
2022-09-05T21:17:14.714Z,98763.22
2022-09-05T21:19:53.804Z,98765.50
2022-09-05T21:22:29.393Z,98770.06
2022-09-05T21:25:25.085Z,98761.16
2022-09-05T21:28:36.466Z,98758.00
2022-09-05T21:31:12.906Z,98773.44
2022-09-05T21:33:46.393Z,98763.00
2022-09-05T21:36:17.089Z,98762.56
2022-09-05T21:38:46.685Z,98760.28
2022-09-05T21:41:20.337Z,98759.22
2022-09-05T21:47:37.457Z,98755.38
2022-09-05T21:47:39.559Z,98754.94
2022-09-05T21:49:34.913Z,98759.13
2022-09-05T21:52:07.259Z,98760.81
2022-09-05T21:59:20.740Z,98760.63
2022-09-05T21:59:29.147Z,98755.28
2022-09-05T22:00:24.470Z,98763.47
2022-09-05T22:02:53.848Z,98751.88
2022-09-05T22:05:25.410Z,98760.28
2022-09-05T22:07:55.660Z,98765.75
2022-09-05T22:10:41.589Z,98750.25
2022-09-05T22:13:17.480Z,98763.34
2022-09-05T22:15:48.657Z,98756.84
2022-09-05T22:18:18.385Z,98758.34
2022-09-05T22:21:31.864Z,98756.88
2022-09-05T22:23:44.457Z,98757.44
2022-09-05T22:26:15.302Z,98742.53
2022-09-05T22:28:49.106Z,98742.31
2022-09-05T22:31:18.940Z,98749.69
2022-09-05T22:33:50.997Z,98744.72
2022-09-05T22:36:20.718Z,98756.84
2022-09-05T22:38:50.009Z,98748.06
2022-09-05T22:41:19.391Z,98741.84
2022-09-05T22:44:01.238Z,98750.72
2022-09-05T22:46:31.016Z,98742.53
2022-09-05T22:49:00.306Z,98739.25
2022-09-05T22:51:29.485Z,98737.78
2022-09-05T22:54:01.585Z,98733.34
2022-09-05T22:56:32.627Z,98730.72
2022-09-05T22:59:04.641Z,98725.59
2022-09-05T23:01:34.512Z,98725.09
2022-09-05T23:04:04.666Z,98726.22
2022-09-05T23:06:33.908Z,98730.31
2022-09-05T23:09:03.117Z,98725.78
2022-09-05T23:11:32.335Z,98726.50
2022-09-05T23:14:02.996Z,98726.91
2022-09-05T23:16:32.151Z,98718.66
2022-09-05T23:19:01.542Z,98716.16
2022-09-05T23:21:30.878Z,98715.66
2022-09-05T23:24:00.051Z,98718.41
2022-09-05T23:26:29.291Z,98705.00
2022-09-05T23:28:58.557Z,98712.19
2022-09-05T23:31:29.276Z,98713.47
2022-09-05T23:33:58.506Z,98709.78
2022-09-05T23:36:27.646Z,98707.22
2022-09-05T23:38:56.868Z,98706.06
2022-09-05T23:41:26.132Z,98703.75
2022-09-05T23:43:55.259Z,98709.00
2022-09-05T23:46:24.428Z,98704.47
2022-09-05T23:48:55.015Z,98701.13
2022-09-05T23:51:24.177Z,98693.31
2022-09-05T23:53:53.276Z,98695.97
2022-09-05T23:56:22.458Z,98696.53
2022-09-05T23:58:51.609Z,98699.72
